Sun Princess — ZCBU6 — position and weather

sailwx.info

Track history (hours):
 
Tides and Currents Weather Stations Pressure Air Temp Water Temp Dewpoint Dewpoint Depression Visibility Wind Speed Wind Dir Waves Ship Positions

Sun Princess

Operator: Princess Cruises

Last reported at 2017-Aug-13 08:57 UTC. Time now 2017-Aug-16 21:38 UTC.
Position S 22°24' E 166°47'.

Length 261.3 m; beam 32.3 m; draft 8.1 m.

Type: Passenger vessel. MMSI: 310438000.

Date/timePositionNaut miles runAvg speedWind from/ knotsBaromVisibWave heightAir tempDewpointWater temp
2017-Aug-13 08:57S 22°24' E 166°47'511.1
2017-Aug-13 08:30S 22°23' E 166°42'611.4
2017-Aug-13 08:00S 22°22' E 166°36'611.1
2017-Aug-13 07:30S 22°21' E 166°30'510.9
2017-Aug-13 07:00S 22°18' E 166°25'3 6.9
2017-Aug-13 06:30S 22°15' E 166°24'2 4.0
2017-Aug-13 06:00S 22°16' E 166°26'0 0.0
2017-Aug-13 05:30S 22°16' E 166°26'0 0.0
2017-Aug-13 05:00S 22°16' E 166°26'0 0.0
2017-Aug-13 04:30S 22°16' E 166°26'0 0.0
2017-Aug-13 04:00S 22°16' E 166°26'0 0.0
2017-Aug-13 03:27S 22°16' E 166°26'0 0.0
2017-Aug-13 03:00S 22°16' E 166°26'0 0.0
2017-Aug-13 02:30S 22°16' E 166°26'0 0.0
2017-Aug-13 01:57S 22°16' E 166°26'0 0.0
2017-Aug-13 01:30S 22°16' E 166°26'0 0.0
2017-Aug-13 01:00S 22°16' E 166°26'0 0.0
2017-Aug-13 00:30S 22°16' E 166°26'0 0.0
2017-Aug-13 00:00S 22°16' E 166°26'0 0.0
2017-Aug-12 23:30S 22°16' E 166°26'0 0.0
2017-Aug-12 23:00S 22°16' E 166°26'0 0.0
2017-Aug-12 22:30S 22°16' E 166°26'0 0.0
2017-Aug-12 22:00S 22°16' E 166°26'0 0.0
2017-Aug-12 21:30S 22°16' E 166°26'0 0.0
2017-Aug-12 20:57S 22°16' E 166°26'0 0.7
2017-Aug-12 20:30S 22°16' E 166°26'4 7.3
2017-Aug-12 20:01S 22°15' E 166°22'816.9
2017-Aug-12 19:30S 22°21' E 166°15'611.5
2017-Aug-12 19:00S 22°25' E 166°11'713.1
2017-Aug-12 18:30S 22°27' E 166°04'70614.3
2017-Aug-10 17:16S 26°29' E 153°55'614.3
2017-Aug-10 16:50S 26°31' E 153°48'1515.3
2017-Aug-10 15:53S 26°36' E 153°33'815.3
2017-Aug-10 15:23S 26°38' E 153°25'615.2
2017-Aug-10 14:59S 26°40' E 153°18'714.2
2017-Aug-10 14:30S 26°43' E 153°11'612.8
2017-Aug-10 14:00S 26°49' E 153°09'815.3
2017-Aug-10 13:30S 26°56' E 153°12'815.5
2017-Aug-10 13:00S 27°03' E 153°17'714.8
2017-Aug-10 12:30S 27°09' E 153°21'714.7
2017-Aug-10 12:00S 27°16' E 153°17'714.3
2017-Aug-10 11:30S 27°21' E 153°11'4 8.8
2017-Aug-10 11:00S 27°25' E 153°09'3 6.4
2017-Aug-10 10:30S 27°27' E 153°06'2 3.6
2017-Aug-10 10:00S 27°27' E 153°04'0 0.1
2017-Aug-10 09:30S 27°26' E 153°04'0 0.0
2017-Aug-10 09:00S 27°26' E 153°04'0 0.0
2017-Aug-10 08:30S 27°26' E 153°04'0 0.0
2017-Aug-10 08:00S 27°26' E 153°04'0 0.0
2017-Aug-10 07:30S 27°26' E 153°04'0 0.0
2017-Aug-10 07:00S 27°26' E 153°04'0 0.0
2017-Aug-10 06:30S 27°26' E 153°04'0 0.0
2017-Aug-10 06:00S 27°26' E 153°04'0 0.0
2017-Aug-10 05:30S 27°26' E 153°04'0 0.0
2017-Aug-09 22:18S 27°26' E 153°04'0 0.0
2017-Aug-09 22:00S 27°26' E 153°04'0 0.0
2017-Aug-09 21:30S 27°26' E 153°04'0 0.0
2017-Aug-09 20:54S 27°26' E 153°04'0 0.0
2017-Aug-09 20:30S 27°26' E 153°04'0 0.0
2017-Aug-09 20:00S 27°26' E 153°04'2 4.4
2017-Aug-09 19:30S 27°27' E 153°07'4 7.5
2017-Aug-09 19:00S 27°24' E 153°09'5 9.3
2017-Aug-09 18:30S 27°20' E 153°12'815.5
2017-Aug-09 18:01S 27°15' E 153°19'815.5
2017-Aug-09 17:31S 27°07' E 153°21'714.8
2017-Aug-09 17:01S 27°02' E 153°15'816.5
2017-Aug-09 16:31S 26°54' E 153°11'713.3
2017-Aug-09 16:00S 26°48' E 153°11'611.9
2017-Aug-09 15:30S 26°42' E 153°13'  
2017-Aug-07 08:41S 22°30' E 165°57'315.3
2017-Aug-07 08:30S 22°29' E 165°59'815.3
2017-Aug-07 08:00S 22°26' E 166°07'714.5
2017-Aug-07 07:30S 22°23' E 166°14'713.9
2017-Aug-07 07:00S 22°18' E 166°19'612.6
2017-Aug-07 06:30S 22°15' E 166°26'1 1.1
2017-Aug-07 06:00S 22°16' E 166°26'0 0.0
2017-Aug-07 05:30S 22°16' E 166°26'0 0.0
2017-Aug-07 05:00S 22°16' E 166°26'0 0.0
2017-Aug-07 04:30S 22°16' E 166°26'0 0.1
2017-Aug-07 04:00S 22°16' E 166°26'0 0.1
2017-Aug-07 03:30S 22°16' E 166°26'0 0.1
2017-Aug-07 03:00S 22°16' E 166°26'0 0.1
2017-Aug-07 02:30S 22°16' E 166°26'0 0.0
2017-Aug-07 02:00S 22°16' E 166°26'0 0.0
2017-Aug-07 01:30S 22°16' E 166°26'0 0.1
2017-Aug-07 01:00S 22°16' E 166°26'0 0.0
2017-Aug-07 00:30S 22°16' E 166°26'0 0.0
2017-Aug-07 00:00S 22°16' E 166°26'0 0.1
2017-Aug-06 23:30S 22°16' E 166°26'0 0.0
2017-Aug-06 23:00S 22°16' E 166°26'0 0.0
2017-Aug-06 22:27S 22°16' E 166°26'0 0.0
2017-Aug-06 21:57S 22°16' E 166°26'0 0.1
2017-Aug-06 21:24S 22°16' E 166°26'0 0.1
2017-Aug-06 21:00S 22°16' E 166°26'0 0.3
2017-Aug-06 20:30S 22°16' E 166°26'3 5.7
2017-Aug-06 20:00S 22°16' E 166°23'714.1
2017-Aug-06 19:30S 22°20' E 166°28'815.3
2017-Aug-06 19:00S 22°23' E 166°36'816.5
2017-Aug-06 18:30S 22°24' E 166°45'  
Track history (hours):
 
Tides and Currents Weather Stations Pressure Air Temp Water Temp Dewpoint Dewpoint Depression Visibility Wind Speed Wind Dir Waves Ship Positions

Sun Princess

Operator: Princess Cruises

Last reported at 2017-Aug-13 08:57 UTC. Time now 2017-Aug-16 21:38 UTC.
Position S 22°24' E 166°47'.

Length 261.3 m; beam 32.3 m; draft 8.1 m.

Type: Passenger vessel. MMSI: 310438000.

Date/timePositionNaut miles runAvg speedWind from/ knotsBaromVisibWave heightAir tempDewpointWater temp
2017-Aug-13 08:57S 22°24' E 166°47'511.1
2017-Aug-13 08:30S 22°23' E 166°42'611.4
2017-Aug-13 08:00S 22°22' E 166°36'611.1
2017-Aug-13 07:30S 22°21' E 166°30'510.9
2017-Aug-13 07:00S 22°18' E 166°25'3 6.9
2017-Aug-13 06:30S 22°15' E 166°24'2 4.0
2017-Aug-13 06:00S 22°16' E 166°26'0 0.0
2017-Aug-13 05:30S 22°16' E 166°26'0 0.0
2017-Aug-13 05:00S 22°16' E 166°26'0 0.0
2017-Aug-13 04:30S 22°16' E 166°26'0 0.0
2017-Aug-13 04:00S 22°16' E 166°26'0 0.0
2017-Aug-13 03:27S 22°16' E 166°26'0 0.0
2017-Aug-13 03:00S 22°16' E 166°26'0 0.0
2017-Aug-13 02:30S 22°16' E 166°26'0 0.0
2017-Aug-13 01:57S 22°16' E 166°26'0 0.0
2017-Aug-13 01:30S 22°16' E 166°26'0 0.0
2017-Aug-13 01:00S 22°16' E 166°26'0 0.0
2017-Aug-13 00:30S 22°16' E 166°26'0 0.0
2017-Aug-13 00:00S 22°16' E 166°26'0 0.0
2017-Aug-12 23:30S 22°16' E 166°26'0 0.0
2017-Aug-12 23:00S 22°16' E 166°26'0 0.0
2017-Aug-12 22:30S 22°16' E 166°26'0 0.0
2017-Aug-12 22:00S 22°16' E 166°26'0 0.0
2017-Aug-12 21:30S 22°16' E 166°26'0 0.0
2017-Aug-12 20:57S 22°16' E 166°26'0 0.7
2017-Aug-12 20:30S 22°16' E 166°26'4 7.3
2017-Aug-12 20:01S 22°15' E 166°22'816.9
2017-Aug-12 19:30S 22°21' E 166°15'611.5
2017-Aug-12 19:00S 22°25' E 166°11'713.1
2017-Aug-12 18:30S 22°27' E 166°04'70614.3
2017-Aug-10 17:16S 26°29' E 153°55'614.3
2017-Aug-10 16:50S 26°31' E 153°48'1515.3
2017-Aug-10 15:53S 26°36' E 153°33'815.3
2017-Aug-10 15:23S 26°38' E 153°25'615.2
2017-Aug-10 14:59S 26°40' E 153°18'714.2
2017-Aug-10 14:30S 26°43' E 153°11'612.8
2017-Aug-10 14:00S 26°49' E 153°09'815.3
2017-Aug-10 13:30S 26°56' E 153°12'815.5
2017-Aug-10 13:00S 27°03' E 153°17'714.8
2017-Aug-10 12:30S 27°09' E 153°21'714.7
2017-Aug-10 12:00S 27°16' E 153°17'714.3
2017-Aug-10 11:30S 27°21' E 153°11'4 8.8
2017-Aug-10 11:00S 27°25' E 153°09'3 6.4
2017-Aug-10 10:30S 27°27' E 153°06'2 3.6
2017-Aug-10 10:00S 27°27' E 153°04'0 0.1
2017-Aug-10 09:30S 27°26' E 153°04'0 0.0
2017-Aug-10 09:00S 27°26' E 153°04'0 0.0
2017-Aug-10 08:30S 27°26' E 153°04'0 0.0
2017-Aug-10 08:00S 27°26' E 153°04'0 0.0
2017-Aug-10 07:30S 27°26' E 153°04'0 0.0
2017-Aug-10 07:00S 27°26' E 153°04'0 0.0
2017-Aug-10 06:30S 27°26' E 153°04'0 0.0
2017-Aug-10 06:00S 27°26' E 153°04'0 0.0
2017-Aug-10 05:30S 27°26' E 153°04'0 0.0
2017-Aug-09 22:18S 27°26' E 153°04'0 0.0
2017-Aug-09 22:00S 27°26' E 153°04'0 0.0
2017-Aug-09 21:30S 27°26' E 153°04'0 0.0
2017-Aug-09 20:54S 27°26' E 153°04'0 0.0
2017-Aug-09 20:30S 27°26' E 153°04'0 0.0
2017-Aug-09 20:00S 27°26' E 153°04'2 4.4
2017-Aug-09 19:30S 27°27' E 153°07'4 7.5
2017-Aug-09 19:00S 27°24' E 153°09'5 9.3
2017-Aug-09 18:30S 27°20' E 153°12'815.5
2017-Aug-09 18:01S 27°15' E 153°19'815.5
2017-Aug-09 17:31S 27°07' E 153°21'714.8
2017-Aug-09 17:01S 27°02' E 153°15'816.5
2017-Aug-09 16:31S 26°54' E 153°11'713.3
2017-Aug-09 16:00S 26°48' E 153°11'611.9
2017-Aug-09 15:30S 26°42' E 153°13'  
2017-Aug-07 08:41S 22°30' E 165°57'315.3
2017-Aug-07 08:30S 22°29' E 165°59'815.3
2017-Aug-07 08:00S 22°26' E 166°07'714.5
2017-Aug-07 07:30S 22°23' E 166°14'713.9
2017-Aug-07 07:00S 22°18' E 166°19'612.6
2017-Aug-07 06:30S 22°15' E 166°26'1 1.1
2017-Aug-07 06:00S 22°16' E 166°26'0 0.0
2017-Aug-07 05:30S 22°16' E 166°26'0 0.0
2017-Aug-07 05:00S 22°16' E 166°26'0 0.0
2017-Aug-07 04:30S 22°16' E 166°26'0 0.1
2017-Aug-07 04:00S 22°16' E 166°26'0 0.1
2017-Aug-07 03:30S 22°16' E 166°26'0 0.1
2017-Aug-07 03:00S 22°16' E 166°26'0 0.1
2017-Aug-07 02:30S 22°16' E 166°26'0 0.0
2017-Aug-07 02:00S 22°16' E 166°26'0 0.0
2017-Aug-07 01:30S 22°16' E 166°26'0 0.1
2017-Aug-07 01:00S 22°16' E 166°26'0 0.0
2017-Aug-07 00:30S 22°16' E 166°26'0 0.0
2017-Aug-07 00:00S 22°16' E 166°26'0 0.1
2017-Aug-06 23:30S 22°16' E 166°26'0 0.0
2017-Aug-06 23:00S 22°16' E 166°26'0 0.0
2017-Aug-06 22:27S 22°16' E 166°26'0 0.0
2017-Aug-06 21:57S 22°16' E 166°26'0 0.1
2017-Aug-06 21:24S 22°16' E 166°26'0 0.1
2017-Aug-06 21:00S 22°16' E 166°26'0 0.3
2017-Aug-06 20:30S 22°16' E 166°26'3 5.7
2017-Aug-06 20:00S 22°16' E 166°23'714.1
2017-Aug-06 19:30S 22°20' E 166°28'815.3
2017-Aug-06 19:00S 22°23' E 166°36'816.5
2017-Aug-06 18:30S 22°24' E 166°45'  

Dump ship's entire track history